Strona główna
METAR-TAF:

METAR-TAF

Lotnisko :

Port lotniczy Ilorin

Ilorin, Nigeria

Szerokość geograficzna: 08-29N, Długość geograficzna: 004-35E, wysokość: 308 m

Aktualna obserwacja pogody

Raport powstał 6 godziny i 1 minut temu, godzina 16:00 UTC
Cisza
Temperatura 35°C
Wilgotność 9%
Ciśnienie 1011 hPa
Widzialność 10 km lub więcej
Brak chmur poniżej 1500 m i brak chmur cumulonimbus

METAR: DNIL 291600Z 00000KT CAVOK 35/M03 Q1011

czas: 23:01 (22:01 UTC)

Prognoza

Raport powstał 17 godziny i 1 minut temu, godzina 05:00 UTC
Prognoza ważna od 29 godzina 06 UTC do 30 godzina 12 UTC
Wiatr 2 kt z kierunków zmiennych
Widzialność: 6000 m
Prawdopodobieństwo 30% :
Przejściowo
od 29 godzina 06 UTC do 29 godzina 12 UTC
Widzialność: 5000 m
zmętnienie

TAF: DNIL 290500Z 2906/3012 VRB02KT 6000 NSC PROB30 TEMPO 2906/2912 5000 HZ

Obserwacja i prognoza pogody dla ponad 4000 lotnisk (raport METAR i TAF).

Dostępne stacje oznaczono żółtymi i czerwonymi punktami na mapie.

Najedź kursorem aby zobaczyć nazwę stacji.

Kliknij aby zobaczyć obserwacje i prognozy pogody.

Aby zmienić mapę: kliknij na zielony przycisk z czarnym krzyżykiem, aby powiększyć; na zielony przycisk z myślnikiem, aby pomniejszyć; na zielone strzałki, aby przejść do map sąsiednich.


METAR-TAF: